Time;durP1;ratioP1;P1;durP2;ratioP2;P2;SDS_P1;SDS_P2;PMS_P1;PMS_P2;Temp;Humidity;BMP_temperature;BMP_pressure;BME280_temperature;BME280_humidity;BME280_pressure;Samples;Min_cycle;Max_cycle;Signal;HPM_P1;HPM_P2
2023/06/13 00:00:28;;;;;;;4.75;3.08;;;;;;;11.99;70.47;101029.03;4961316;28;20050;-84
2023/06/13 00:02:55;;;;;;;4.55;3.40;;;;;;;11.96;70.59;101036.19;4998454;28;20042;-84
2023/06/13 00:05:22;;;;;;;4.40;3.10;;;;;;;11.86;71.57;101042.56;4985788;28;20462;-84
2023/06/13 00:07:50;;;;;;;4.25;3.40;;;;;;;11.76;72.14;101036.50;4978583;28;20048;-84
2023/06/13 00:10:20;;;;;;;4.53;3.58;;;;;;;11.76;72.92;101039.16;4980698;28;20091;-84
2023/06/13 00:12:49;;;;;;;4.68;3.30;;;;;;;11.74;72.91;101033.03;4990544;28;20117;-84
2023/06/13 00:15:16;;;;;;;5.70;3.58;;;;;;;11.66;73.95;101033.19;5003875;28;20057;-84
2023/06/13 00:17:43;;;;;;;4.55;3.58;;;;;;;11.62;74.80;101031.50;4991410;28;20506;-83
2023/06/13 00:20:10;;;;;;;4.50;3.72;;;;;;;11.52;75.31;101038.75;4983778;28;20108;-85
2023/06/13 00:22:38;;;;;;;7.18;4.38;;;;;;;11.50;75.14;101032.59;4977641;28;20044;-85
2023/06/13 00:25:05;;;;;;;4.40;4.00;;;;;;;11.41;76.44;101031.88;4983227;28;20052;-84
2023/06/13 00:27:32;;;;;;;4.90;3.65;;;;;;;11.31;77.29;101022.38;4981280;28;20061;-85
2023/06/13 00:30:02;;;;;;;5.38;3.90;;;;;;;11.27;77.37;101033.03;4984093;28;20129;-83
2023/06/13 00:32:29;;;;;;;4.63;3.75;;;;;;;11.27;77.66;101025.09;5013310;28;20041;-85
2023/06/13 00:34:56;;;;;;;7.15;3.92;;;;;;;11.22;78.41;101024.28;4992283;28;20042;-83
2023/06/13 00:37:23;;;;;;;4.72;3.47;;;;;;;11.08;80.17;101026.28;5000779;28;20105;-83
2023/06/13 00:39:50;;;;;;;4.35;3.63;;;;;;;10.99;81.11;101027.31;4991039;28;20583;-84
2023/06/13 00:42:16;;;;;;;4.78;3.40;;;;;;;11.01;81.33;101027.28;5014401;28;20272;-84
2023/06/13 00:44:43;;;;;;;4.20;3.17;;;;;;;11.02;80.86;101029.03;5015458;28;20137;-83
2023/06/13 00:47:13;;;;;;;4.20;3.38;;;;;;;10.86;82.63;101025.78;5008427;28;20058;-84
2023/06/13 00:49:43;;;;;;;7.33;4.03;;;;;;;10.90;82.35;101026.59;4996086;28;20052;-83
2023/06/13 00:52:10;;;;;;;5.53;3.55;;;;;;;10.83;82.53;101019.66;4998201;28;20069;-84
2023/06/13 00:54:37;;;;;;;5.30;4.13;;;;;;;10.85;81.83;101020.50;5006608;28;20042;-83
2023/06/13 00:57:06;;;;;;;5.35;4.03;;;;;;;10.79;81.95;101012.66;5007127;28;20066;-82
2023/06/13 00:59:33;;;;;;;4.80;3.58;;;;;;;10.62;83.69;101012.94;4991646;28;20566;-84
2023/06/13 01:01:59;;;;;;;7.32;4.88;;;;;;;10.54;83.53;101013.03;4993926;28;20049;-83
2023/06/13 01:04:30;;;;;;;4.90;3.53;;;;;;;10.48;84.19;101012.25;4989586;28;20045;-83
2023/06/13 01:07:00;;;;;;;4.35;3.95;;;;;;;10.65;84.47;101011.09;5001603;28;20053;-83
2023/06/13 01:09:31;;;;;;;5.70;3.80;;;;;;;10.59;85.59;101016.47;4994214;28;20045;-84
2023/06/13 01:12:08;;;;;;;4.90;4.10;;;;;;;10.59;85.44;101015.59;5001968;28;20062;-84
2023/06/13 01:14:42;;;;;;;6.65;3.70;;;;;;;10.50;87.32;101013.97;5024390;28;20140;-83
2023/06/13 01:17:15;;;;;;;5.20;4.40;;;;;;;10.51;87.24;101010.47;4994836;28;20048;-83
2023/06/13 01:19:43;;;;;;;4.50;3.67;;;;;;;10.52;88.14;101013.97;5002952;28;20534;-84
2023/06/13 01:22:20;;;;;;;5.20;3.72;;;;;;;10.48;88.43;101007.84;5023779;28;20105;-84
2023/06/13 01:25:11;;;;;;;5.63;4.03;;;;;;;10.43;88.53;101007.06;5010910;28;20045;-83
2023/06/13 01:27:49;;;;;;;4.88;3.70;;;;;;;10.39;87.99;101002.69;5001357;28;20041;-84
2023/06/13 01:30:19;;;;;;;5.00;4.15;;;;;;;10.37;87.46;100996.56;4991379;28;20316;-84
2023/06/13 01:32:46;;;;;;;4.95;3.83;;;;;;;10.23;88.87;100996.75;5013573;28;20075;-83
2023/06/13 01:35:15;;;;;;;5.13;3.78;;;;;;;10.25;89.48;100994.06;4992400;28;20045;-83
2023/06/13 01:37:43;;;;;;;5.15;3.92;;;;;;;10.21;88.57;100995.00;4991026;28;20053;-83
2023/06/13 01:40:10;;;;;;;5.10;4.10;;;;;;;10.13;89.37;101001.25;5007171;28;20038;-83
2023/06/13 01:42:37;;;;;;;5.32;4.40;;;;;;;10.12;89.57;100999.50;4993187;28;20056;-83
2023/06/13 01:45:04;;;;;;;6.55;4.18;;;;;;;10.07;90.26;101011.88;5023373;28;20029;-84
2023/06/13 01:47:50;;;;;;;5.72;4.43;;;;;;;10.05;90.58;101000.47;5010327;28;20112;-83
2023/06/13 01:50:33;;;;;;;5.20;4.68;;;;;;;9.97;90.52;101009.38;5012121;28;20042;-83
2023/06/13 01:53:13;;;;;;;7.57;4.70;;;;;;;9.83;90.28;101005.13;5004685;28;20468;-83
2023/06/13 01:55:46;;;;;;;5.17;4.10;;;;;;;9.88;91.31;101000.69;5005232;28;20474;-83
2023/06/13 01:58:22;;;;;;;7.13;4.50;;;;;;;9.79;92.05;101003.44;4997464;28;20451;-83
2023/06/13 02:00:51;;;;;;;5.00;3.83;;;;;;;9.82;91.76;101002.53;4993355;28;20041;-83
2023/06/13 02:03:18;;;;;;;4.07;3.67;;;;;;;9.72;93.01;100999.13;5025692;28;20042;-83
2023/06/13 02:05:47;;;;;;;5.60;4.27;;;;;;;9.79;91.96;100999.94;4992476;28;20056;-82
2023/06/13 02:08:13;;;;;;;4.83;3.97;;;;;;;9.66;93.83;100998.31;4991480;28;20492;-83
2023/06/13 02:10:40;;;;;;;8.50;4.50;;;;;;;9.68;93.87;100992.16;5009022;28;20038;-84
2023/06/13 02:13:07;;;;;;;4.80;4.25;;;;;;;9.64;94.17;100992.19;5005348;28;20114;-82
2023/06/13 02:15:34;;;;;;;5.13;4.37;;;;;;;9.54;95.53;100992.28;4989617;28;20066;-83
2023/06/13 02:18:00;;;;;;;8.30;4.10;;;;;;;9.48;96.02;100997.63;5008737;28;20037;-83
2023/06/13 02:20:27;;;;;;;4.70;4.27;;;;;;;9.52;95.94;101002.00;5009385;28;20478;-83
2023/06/13 02:22:54;;;;;;;5.17;4.33;;;;;;;9.47;96.69;100987.97;5007408;28;20053;-83
2023/06/13 02:25:20;;;;;;;4.13;3.73;;;;;;;9.55;96.27;100990.53;5008174;28;20057;-84
2023/06/13 02:27:47;;;;;;;5.17;4.10;;;;;;;9.48;97.61;100987.06;5000784;28;20038;-83
2023/06/13 02:30:14;;;;;;;5.57;3.63;;;;;;;9.37;98.38;100988.09;5011415;28;20077;-83
2023/06/13 02:32:41;;;;;;;6.27;4.50;;;;;;;9.40;97.77;100981.00;5018907;28;20034;-82
2023/06/13 02:35:09;;;;;;;5.30;4.30;;;;;;;9.32;98.57;100986.34;5004820;28;20584;-84
2023/06/13 02:37:36;;;;;;;5.73;4.37;;;;;;;9.32;97.78;100985.47;4988141;28;20060;-83
2023/06/13 02:40:07;;;;;;;6.40;4.63;;;;;;;9.31;98.72;100992.53;4987881;28;20142;-83
2023/06/13 02:42:34;;;;;;;5.20;4.33;;;;;;;9.35;99.46;100989.88;4992071;28;20206;-84
2023/06/13 02:45:01;;;;;;;8.20;5.07;;;;;;;9.29;100.00;100990.78;5015932;28;20053;-85
2023/06/13 02:47:28;;;;;;;5.17;4.20;;;;;;;9.31;100.00;100987.25;5015492;28;20104;-82
2023/06/13 02:49:58;;;;;;;6.17;4.13;;;;;;;9.31;100.00;100986.38;4989132;28;20165;-85
2023/06/13 02:52:25;;;;;;;5.40;4.33;;;;;;;9.30;100.00;100987.28;5011838;28;20053;-84
2023/06/13 02:54:54;;;;;;;5.20;4.03;;;;;;;9.23;100.00;100985.56;4992464;28;20048;-83
2023/06/13 02:57:23;;;;;;;5.10;4.37;;;;;;;9.24;100.00;100984.69;4989414;28;20066;-85
2023/06/13 02:59:50;;;;;;;4.73;4.20;;;;;;;9.30;100.00;100982.88;4992424;28;20129;-84
2023/06/13 03:02:20;;;;;;;4.90;3.80;;;;;;;9.20;100.00;100983.84;5005552;28;20396;-84
2023/06/13 03:04:48;;;;;;;5.50;3.90;;;;;;;9.23;100.00;100982.94;5006693;28;20097;-84
2023/06/13 03:07:16;;;;;;;7.03;4.20;;;;;;;9.22;100.00;100982.06;4991294;28;20054;-82
2023/06/13 03:09:43;;;;;;;5.23;4.17;;;;;;;9.24;100.00;100985.56;5027490;28;20042;-85
2023/06/13 03:12:11;;;;;;;5.20;4.43;;;;;;;9.20;100.00;100989.13;5006758;28;20491;-84
2023/06/13 03:14:38;;;;;;;6.33;4.37;;;;;;;9.29;100.00;100985.53;5013555;28;20447;-85
2023/06/13 03:17:06;;;;;;;5.40;4.90;;;;;;;9.19;100.00;100979.47;4993142;28;20130;-84
2023/06/13 03:19:33;;;;;;;6.73;4.30;;;;;;;9.22;100.00;100981.19;5014008;28;20113;-85
2023/06/13 03:22:05;;;;;;;5.90;4.70;;;;;;;9.26;99.65;100983.81;5000188;28;20335;-85
2023/06/13 03:24:32;;;;;;;4.43;3.80;;;;;;;9.20;100.00;100975.94;4990411;28;20734;-84
2023/06/13 03:27:03;;;;;;;5.37;4.50;;;;;;;9.26;100.00;100977.66;4996999;28;20070;-84
2023/06/13 03:29:29;;;;;;;6.77;4.67;;;;;;;9.29;99.99;100981.13;4994317;28;20109;-83
2023/06/13 03:31:56;;;;;;;6.17;4.30;;;;;;;9.31;99.76;100968.78;5004626;28;20049;-84
2023/06/13 03:34:28;;;;;;;6.13;4.20;;;;;;;9.21;100.00;100974.19;5008900;28;20049;-84
2023/06/13 03:36:55;;;;;;;4.97;4.03;;;;;;;9.24;100.00;100963.59;5000782;28;20026;-84
2023/06/13 03:39:21;;;;;;;6.80;4.60;;;;;;;9.27;99.98;100961.81;5008792;28;20038;-85
2023/06/13 03:41:48;;;;;;;5.33;4.67;;;;;;;9.26;100.00;100978.53;4996961;28;20114;-85
2023/06/13 03:44:15;;;;;;;4.87;3.80;;;;;;;9.24;100.00;100989.97;5014820;28;20121;-83
2023/06/13 03:46:42;;;;;;;5.43;4.30;;;;;;;9.31;100.00;100996.91;4996255;28;20038;-83
2023/06/13 03:49:08;;;;;;;4.83;4.00;;;;;;;9.43;100.00;100991.53;5005066;28;20482;-85
2023/06/13 03:51:35;;;;;;;4.77;3.97;;;;;;;9.43;100.00;100991.53;5007184;28;20072;-83
2023/06/13 03:54:02;;;;;;;7.97;4.17;;;;;;;9.48;100.00;100989.72;5003786;28;20052;-83
2023/06/13 03:56:29;;;;;;;4.97;4.00;;;;;;;9.41;100.00;100988.03;5001514;28;20037;-84
2023/06/13 03:58:56;;;;;;;6.33;4.43;;;;;;;9.43;100.00;100988.91;4989589;28;20061;-84
2023/06/13 04:01:24;;;;;;;6.63;4.03;;;;;;;9.51;100.00;100994.09;5013083;28;20038;-83
2023/06/13 04:03:51;;;;;;;5.97;3.97;;;;;;;9.66;100.00;100988.63;5023557;28;20081;-84
2023/06/13 04:06:18;;;;;;;6.60;4.93;;;;;;;9.63;100.00;100983.41;4988044;28;20068;-84
2023/06/13 04:08:45;;;;;;;7.67;4.13;;;;;;;9.72;100.00;100991.22;5003352;28;20435;-83
2023/06/13 04:11:11;;;;;;;5.43;4.40;;;;;;;9.79;100.00;100987.59;4987520;28;20061;-83
2023/06/13 04:13:38;;;;;;;4.87;4.30;;;;;;;9.73;100.00;100989.44;4987069;28;20052;-84
2023/06/13 04:16:05;;;;;;;7.83;4.60;;;;;;;9.83;100.00;100984.03;4986848;28;20080;-84
2023/06/13 04:18:33;;;;;;;4.43;4.00;;;;;;;9.91;100.00;100983.06;4994031;28;20736;-84
2023/06/13 04:21:00;;;;;;;6.30;4.53;;;;;;;9.99;100.00;100975.91;4999657;28;20073;-83
2023/06/13 04:23:27;;;;;;;4.85;3.70;;;;;;;10.04;100.00;100974.97;4997390;28;20106;-84
2023/06/13 04:25:54;;;;;;;6.00;4.27;;;;;;;10.09;100.00;100977.56;4997406;28;20419;-83
2023/06/13 04:28:22;;;;;;;4.80;3.83;;;;;;;10.13;100.00;100979.25;4998597;28;20121;-84
2023/06/13 04:30:51;;;;;;;5.50;4.30;;;;;;;10.18;100.00;100979.22;5000172;28;20050;-84
2023/06/13 04:33:21;;;;;;;5.32;3.53;;;;;;;10.21;100.00;100981.78;4976767;28;20050;-83
2023/06/13 04:35:49;;;;;;;5.43;3.80;;;;;;;10.27;100.00;100972.06;5016195;28;20030;-83
2023/06/13 04:38:18;;;;;;;6.15;3.83;;;;;;;10.36;100.00;100976.34;4982846;28;20104;-84
2023/06/13 04:40:44;;;;;;;5.10;3.75;;;;;;;10.41;100.00;100975.34;5001245;28;20057;-83
2023/06/13 04:43:14;;;;;;;5.25;3.88;;;;;;;10.50;100.00;100979.63;4983887;28;20054;-85
2023/06/13 04:45:43;;;;;;;10.90;4.47;;;;;;;10.64;100.00;100979.44;5001004;28;20041;-85
2023/06/13 04:48:11;;;;;;;4.18;3.70;;;;;;;10.74;100.00;100978.38;5016992;28;20037;-84
2023/06/13 04:50:40;;;;;;;5.68;3.42;;;;;;;10.99;100.00;100969.13;5015728;28;20069;-84
2023/06/13 04:53:07;;;;;;;8.63;3.95;;;;;;;11.07;100.00;100981.34;4991332;28;20041;-83
2023/06/13 04:55:37;;;;;;;4.85;3.92;;;;;;;11.04;100.00;100977.00;4999823;28;20061;-85
2023/06/13 04:58:04;;;;;;;4.05;3.63;;;;;;;11.20;100.00;100977.63;4986262;28;20062;-86
2023/06/13 05:00:31;;;;;;;5.30;4.15;;;;;;;11.30;100.00;100980.97;5013311;28;20046;-84
2023/06/13 05:03:00;;;;;;;5.95;4.38;;;;;;;11.52;100.00;100980.53;5001240;28;20042;-85
2023/06/13 05:05:28;;;;;;;5.43;4.03;;;;;;;11.65;100.00;100975.84;4982174;28;20045;-85
2023/06/13 05:07:57;;;;;;;4.80;3.80;;;;;;;11.71;100.00;100978.41;5014305;28;20461;-83
2023/06/13 05:10:25;;;;;;;5.47;3.72;;;;;;;11.84;100.00;100974.59;4972895;28;20042;-84
2023/06/13 05:12:53;;;;;;;6.30;4.13;;;;;;;12.24;98.19;100978.19;4989395;28;20121;-84
2023/06/13 05:15:23;;;;;;;7.43;3.95;;;;;;;12.85;93.59;100971.44;4974216;28;20046;-85
2023/06/13 05:17:52;;;;;;;5.25;3.47;;;;;;;13.35;92.35;100978.13;4976388;28;20038;-85
2023/06/13 05:20:22;;;;;;;6.00;3.67;;;;;;;13.64;88.79;100981.78;4990289;28;20510;-84
2023/06/13 05:22:50;;;;;;;5.05;3.45;;;;;;;13.63;87.34;100977.41;4977271;28;20065;-84
2023/06/13 05:25:17;;;;;;;5.53;3.60;;;;;;;13.74;86.63;100973.50;4975450;28;20073;-84
2023/06/13 05:27:44;;;;;;;4.40;3.58;;;;;;;13.64;87.34;100971.16;4992740;28;20034;-84
2023/06/13 05:30:11;;;;;;;6.82;3.83;;;;;;;13.63;86.26;100967.66;4976258;28;20042;-85
2023/06/13 05:32:39;;;;;;;6.38;3.85;;;;;;;13.71;82.94;100968.28;4986366;28;20042;-86
2023/06/13 05:35:08;;;;;;;5.50;3.75;;;;;;;13.80;83.04;100962.72;4975034;28;20042;-83
2023/06/13 05:37:38;;;;;;;5.68;3.63;;;;;;;14.37;77.15;100963.66;4993047;28;20046;-85
2023/06/13 05:40:06;;;;;;;10.57;3.80;;;;;;;15.74;68.51;100964.34;4975956;28;20042;-86
2023/06/13 05:42:35;;;;;;;4.47;3.30;;;;;;;18.16;60.71;100957.78;4989200;28;20447;-86
2023/06/13 05:45:03;;;;;;;6.05;3.33;;;;;;;20.39;51.95;100964.13;4975413;28;20575;-86
2023/06/13 05:47:30;;;;;;;4.47;3.20;;;;;;;22.00;46.53;100961.66;4991980;28;20407;-86
2023/06/13 05:49:57;;;;;;;6.07;3.45;;;;;;;23.69;42.91;100959.44;4989389;28;20100;-86
2023/06/13 05:52:25;;;;;;;4.20;3.38;;;;;;;23.27;40.70;100956.03;4972829;28;20049;-86
2023/06/13 05:54:52;;;;;;;4.82;3.20;;;;;;;24.44;37.68;100954.91;4973648;28;20583;-87
2023/06/13 05:57:19;;;;;;;7.18;3.90;;;;;;;25.73;33.38;100954.09;4985852;28;20061;-86
2023/06/13 05:59:46;;;;;;;7.25;3.97;;;;;;;25.14;34.19;100962.28;4977019;28;20508;-85
2023/06/13 06:02:12;;;;;;;4.47;3.72;;;;;;;25.59;35.11;100957.84;4997857;28;20069;-85
2023/06/13 06:04:39;;;;;;;5.50;3.63;;;;;;;24.28;34.40;100957.84;4989573;28;20045;-85
2023/06/13 06:07:06;;;;;;;4.43;3.40;;;;;;;24.46;35.83;100960.19;4977446;28;20056;-85
2023/06/13 06:09:33;;;;;;;4.95;3.75;;;;;;;24.33;35.40;100960.25;4994393;28;20045;-86
2023/06/13 06:12:00;;;;;;;6.72;3.70;;;;;;;24.04;36.20;100951.50;4995412;28;20069;-85
2023/06/13 06:14:26;;;;;;;5.15;3.35;;;;;;;23.51;36.90;100948.06;4979245;28;20088;-85
2023/06/13 06:16:55;;;;;;;5.72;3.58;;;;;;;23.12;37.63;100944.47;4979368;28;20038;-85
2023/06/13 06:19:22;;;;;;;5.47;3.97;;;;;;;21.93;38.45;100949.56;4979062;28;20404;-84
2023/06/13 06:21:49;;;;;;;5.80;3.63;;;;;;;21.86;38.48;100951.78;4992246;28;20412;-84
2023/06/13 06:24:16;;;;;;;5.07;3.47;;;;;;;21.38;39.60;100961.06;4972469;28;20057;-86
2023/06/13 06:26:43;;;;;;;364.00;53.47;;;;;;;21.75;40.64;100962.34;4994982;28;20179;-85
2023/06/13 06:29:10;;;;;;;28.33;7.70;;;;;;;21.75;39.16;100958.78;5010356;28;20030;-84
2023/06/13 06:31:36;;;;;;;22.92;7.00;;;;;;;21.51;40.67;100967.41;4992300;28;20444;-85
2023/06/13 06:34:04;;;;;;;22.08;6.68;;;;;;;21.21;41.16;100974.63;4979894;28;20073;-85
2023/06/13 06:36:30;;;;;;;7.03;4.50;;;;;;;20.61;40.92;100978.09;5005965;28;20183;-85
2023/06/13 06:38:57;;;;;;;6.82;3.78;;;;;;;19.79;42.59;100978.16;4994599;28;20522;-85
2023/06/13 06:41:24;;;;;;;9.73;3.97;;;;;;;19.43;43.79;100991.66;4996768;28;20140;-84
2023/06/13 06:43:50;;;;;;;10.35;4.65;;;;;;;19.61;45.02;100984.50;4996722;28;20080;-85
2023/06/13 06:46:17;;;;;;;10.88;4.45;;;;;;;19.53;45.05;100979.50;4984559;28;20037;-85
2023/06/13 06:48:44;;;;;;;7.00;3.83;;;;;;;19.55;45.75;100984.78;4992653;28;20038;-85
2023/06/13 06:51:11;;;;;;;6.07;4.22;;;;;;;19.63;45.67;100990.63;4978738;28;20562;-86
2023/06/13 06:53:39;;;;;;;8.35;4.55;;;;;;;19.60;45.72;100983.63;4976531;28;20056;-85
2023/06/13 06:56:06;;;;;;;130.73;21.13;;;;;;;19.12;46.07;100998.59;4978942;28;20069;-85
2023/06/13 06:58:33;;;;;;;33.38;8.18;;;;;;;19.13;47.58;100991.41;4971161;28;20480;-85
2023/06/13 07:01:00;;;;;;;24.15;6.78;;;;;;;19.09;48.23;100992.53;4980078;28;20073;-84
2023/06/13 07:03:28;;;;;;;7.50;4.20;;;;;;;18.95;47.58;101003.06;4981076;28;20048;-85
2023/06/13 07:05:55;;;;;;;6.03;4.47;;;;;;;18.81;46.89;100991.22;4993651;28;20044;-85
2023/06/13 07:08:23;;;;;;;5.80;4.10;;;;;;;18.73;48.37;100987.16;4979344;28;20124;-85
2023/06/13 07:10:50;;;;;;;26.45;6.93;;;;;;;18.53;48.67;100988.13;5011707;28;20092;-86
2023/06/13 07:13:20;;;;;;;10.35;4.57;;;;;;;18.68;48.36;100987.41;4982713;28;20420;-85
2023/06/13 07:15:51;;;;;;;6.78;4.15;;;;;;;18.73;47.99;100984.50;4997344;28;20424;-84
2023/06/13 07:18:17;;;;;;;5.82;4.30;;;;;;;18.73;47.78;100981.81;4981756;28;20092;-85
2023/06/13 07:20:45;;;;;;;9.88;4.50;;;;;;;18.58;47.27;100983.38;4981520;28;20449;-85
2023/06/13 07:23:12;;;;;;;7.50;4.57;;;;;;;18.67;47.36;100977.66;5000074;28;20049;-87
2023/06/13 07:25:42;;;;;;;10.07;5.00;;;;;;;18.70;46.40;100969.47;4995058;28;20069;-85
2023/06/13 07:28:09;;;;;;;7.72;4.75;;;;;;;18.66;46.36;100970.53;5000395;28;20515;-86
2023/06/13 07:30:36;;;;;;;8.15;4.78;;;;;;;18.67;48.39;100972.31;4982160;28;20048;-85
2023/06/13 07:33:03;;;;;;;5.60;3.95;;;;;;;18.71;47.06;100971.19;4982486;28;20062;-85
2023/06/13 07:35:32;;;;;;;6.22;4.50;;;;;;;19.16;47.00;100974.31;4965027;28;20184;-85
2023/06/13 07:37:58;;;;;;;5.13;3.95;;;;;;;19.78;45.36;100963.03;5008471;28;20038;-85
2023/06/13 07:40:25;;;;;;;7.65;5.20;;;;;;;20.30;45.23;100957.47;4994564;28;20049;-84
2023/06/13 07:42:54;;;;;;;5.18;4.10;;;;;;;20.87;45.28;100965.00;4992521;28;20129;-84
2023/06/13 07:45:21;;;;;;;50.58;9.20;;;;;;;21.22;42.44;100961.09;4986223;28;20046;-85
2023/06/13 07:47:52;;;;;;;5.25;4.25;;;;;;;21.55;40.85;100966.28;5016803;28;20038;-84
2023/06/13 07:50:21;;;;;;;8.07;3.92;;;;;;;21.72;41.75;100964.38;5003467;28;20113;-84
2023/06/13 07:52:48;;;;;;;6.03;4.20;;;;;;;21.78;40.78;100956.78;4980751;28;20043;-84
2023/06/13 07:55:16;;;;;;;6.55;4.32;;;;;;;21.51;40.65;100970.09;4985163;28;20113;-84
2023/06/13 07:57:45;;;;;;;6.00;4.10;;;;;;;21.57;40.47;100958.97;4997660;28;20046;-83
2023/06/13 08:00:25;;;;;;;5.88;4.20;;;;;;;21.39;41.12;100961.91;4978477;28;20034;-84
2023/06/13 08:02:51;;;;;;;32.63;7.95;;;;;;;21.33;42.05;100966.69;4998139;28;20064;-85
2023/06/13 08:05:19;;;;;;;18.90;6.65;;;;;;;21.38;42.58;100970.94;4987879;28;20054;-84
2023/06/13 08:07:47;;;;;;;9.40;4.38;;;;;;;21.60;41.27;100968.66;4989451;28;20118;-84
2023/06/13 08:10:14;;;;;;;7.85;4.35;;;;;;;21.53;40.16;100965.50;4985239;28;20057;-84
2023/06/13 08:12:42;;;;;;;7.75;4.30;;;;;;;21.53;40.49;100960.13;4985353;28;20085;-84
2023/06/13 08:15:10;;;;;;;6.05;4.10;;;;;;;21.49;41.22;100963.09;4992283;28;20042;-84
2023/06/13 08:17:37;;;;;;;18.10;5.88;;;;;;;21.46;41.17;100956.09;4976474;28;20038;-85
2023/06/13 08:20:06;;;;;;;7.43;3.85;;;;;;;21.61;40.80;100959.66;4978509;28;20116;-84
2023/06/13 08:22:32;;;;;;;6.20;4.03;;;;;;;21.60;40.10;100979.41;4976148;28;20054;-85
2023/06/13 08:24:59;;;;;;;4.93;4.00;;;;;;;21.86;40.74;100958.97;4993274;28;20046;-85
2023/06/13 08:27:26;;;;;;;8.45;5.18;;;;;;;21.67;40.24;100969.16;4995309;28;20072;-85
2023/06/13 08:29:53;;;;;;;6.55;4.35;;;;;;;21.93;41.35;100960.31;4995366;28;20131;-85
2023/06/13 08:32:20;;;;;;;5.88;4.40;;;;;;;22.07;39.97;100948.69;4987007;28;20041;-86
2023/06/13 08:34:47;;;;;;;6.18;4.15;;;;;;;22.09;39.14;100962.94;4987485;28;20045;-85
2023/06/13 08:37:14;;;;;;;6.43;4.25;;;;;;;22.17;39.29;100953.41;4993806;28;20053;-85
2023/06/13 08:39:46;;;;;;;5.68;4.00;;;;;;;21.86;38.69;100957.19;4993595;28;20521;-85
2023/06/13 08:42:13;;;;;;;5.70;4.30;;;;;;;22.12;38.67;100942.09;4977202;28;20042;-85
2023/06/13 08:44:40;;;;;;;10.52;4.45;;;;;;;22.25;38.49;100955.63;4977636;28;20072;-83
2023/06/13 08:47:07;;;;;;;7.93;4.10;;;;;;;22.67;37.63;100957.31;4979626;28;20037;-86
2023/06/13 08:49:53;;;;;;;7.25;4.10;;;;;;;23.06;37.21;100952.97;4996939;28;20058;-86
2023/06/13 08:52:21;;;;;;;6.95;4.03;;;;;;;22.61;36.90;100955.03;4976564;28;20054;-84
2023/06/13 08:54:53;;;;;;;6.20;3.90;;;;;;;23.02;37.13;100952.31;4978662;28;20091;-84
2023/06/13 08:57:39;;;;;;;29.38;7.45;;;;;;;22.61;36.57;100954.16;4994644;28;20116;-84
2023/06/13 09:00:11;;;;;;;11.10;4.68;;;;;;;22.64;37.97;100964.75;5000269;28;20053;-83
2023/06/13 09:02:43;;;;;;;4.80;3.72;;;;;;;22.85;36.99;100957.09;4990980;28;20045;-85
2023/06/13 09:05:15;;;;;;;6.20;4.20;;;;;;;22.64;37.88;100964.75;4985876;28;20045;-83
2023/06/13 09:07:42;;;;;;;7.18;4.05;;;;;;;23.05;36.98;100958.47;4992800;28;20037;-83
2023/06/13 09:10:11;;;;;;;5.85;4.30;;;;;;;23.31;37.05;100949.47;4990389;28;20474;-85
2023/06/13 09:12:43;;;;;;;5.90;3.70;;;;;;;23.17;37.19;100963.00;4986629;28;20557;-83
2023/06/13 09:15:10;;;;;;;7.70;4.32;;;;;;;23.14;37.44;100950.63;4982441;28;20077;-84
2023/06/13 09:17:38;;;;;;;7.75;4.10;;;;;;;22.87;36.96;100953.38;4995565;28;20132;-82
2023/06/13 09:20:07;;;;;;;6.07;3.75;;;;;;;22.33;37.29;100945.22;4984812;28;20638;-82
2023/06/13 09:22:35;;;;;;;6.80;3.83;;;;;;;22.97;38.17;100954.47;4993792;28;20061;-83
2023/06/13 09:25:04;;;;;;;5.60;3.75;;;;;;;23.71;36.97;100944.00;4986576;28;20571;-83
2023/06/13 09:27:48;;;;;;;7.97;4.00;;;;;;;23.93;35.90;100943.34;5004672;28;20029;-83
2023/06/13 09:30:15;;;;;;;13.27;4.72;;;;;;;24.19;34.77;100936.03;5012279;28;20061;-82
2023/06/13 09:32:51;;;;;;;9.45;5.18;;;;;;;24.57;34.78;100933.25;5002474;28;20091;-84
2023/06/13 09:35:19;;;;;;;7.22;4.03;;;;;;;24.33;35.46;100930.53;4987521;28;20061;-83
2023/06/13 09:38:06;;;;;;;26.00;5.63;;;;;;;24.57;33.15;100930.56;5001860;28;20034;-82
2023/06/13 09:40:33;;;;;;;287.02;40.03;;;;;;;24.55;33.87;100930.69;5017382;28;20052;-82
2023/06/13 09:43:02;;;;;;;14.45;3.58;;;;;;;24.29;31.97;100940.66;5003361;28;20042;-83
2023/06/13 09:45:50;;;;;;;7.22;3.10;;;;;;;24.01;32.13;100939.09;4991119;28;20042;-84
2023/06/13 09:48:21;;;;;;;4.68;2.83;;;;;;;24.65;31.91;100928.16;4982458;28;20041;-85
2023/06/13 09:50:49;;;;;;;3.85;2.67;;;;;;;24.65;30.84;100929.00;4987666;28;20083;-83
2023/06/13 09:53:16;;;;;;;4.72;3.10;;;;;;;24.32;30.98;100932.38;5001367;28;20042;-85
2023/06/13 09:55:43;;;;;;;4.50;2.72;;;;;;;24.34;31.02;100922.31;4986990;28;21319;-84
2023/06/13 09:58:10;;;;;;;3.67;3.03;;;;;;;24.54;32.16;100925.38;5003285;28;20783;-83
2023/06/13 10:00:57;;;;;;;8.73;3.22;;;;;;;24.94;29.41;100932.19;4984043;28;20057;-84
2023/06/13 10:03:25;;;;;;;4.13;2.60;;;;;;;25.05;28.55;100931.41;4998110;28;20132;-83
2023/06/13 10:05:53;;;;;;;5.13;2.60;;;;;;;24.80;29.73;100926.09;4989370;28;20057;-83
2023/06/13 10:08:20;;;;;;;5.65;3.13;;;;;;;25.22;30.58;100932.81;4998282;28;20056;-82
2023/06/13 10:10:47;;;;;;;5.85;3.17;;;;;;;25.37;31.52;100930.75;4997375;28;20033;-81
2023/06/13 10:13:15;;;;;;;5.30;2.95;;;;;;;25.75;30.59;100928.63;5007716;28;20052;-83
2023/06/13 10:15:54;;;;;;;4.68;2.72;;;;;;;25.42;29.28;100931.28;4975893;28;20077;-84
2023/06/13 10:18:21;;;;;;;5.45;3.05;;;;;;;24.70;29.48;100932.22;5018853;28;20038;-82
2023/06/13 10:20:48;;;;;;;6.38;2.80;;;;;;;25.38;30.42;100930.63;5007677;28;20135;-82
2023/06/13 10:23:18;;;;;;;4.35;2.75;;;;;;;25.26;29.58;100931.59;4983379;28;20046;-84
2023/06/13 10:25:52;;;;;;;3.80;2.90;;;;;;;25.47;29.06;100926.34;4996591;28;20069;-84
2023/06/13 10:28:41;;;;;;;5.32;2.50;;;;;;;25.25;29.39;100933.44;5001642;28;20160;-84
2023/06/13 10:31:26;;;;;;;3.42;2.42;;;;;;;24.49;28.12;100938.38;5009809;28;20042;-81
2023/06/13 10:34:03;;;;;;;4.45;2.67;;;;;;;24.68;28.15;100944.13;5005693;28;20096;-83
2023/06/13 10:36:57;;;;;;;5.53;2.10;;;;;;;24.91;28.14;100945.97;4997685;28;20434;-82
2023/06/13 10:39:35;;;;;;;5.88;2.58;;;;;;;24.52;27.81;100938.13;5004763;28;20038;-84
2023/06/13 10:42:23;;;;;;;4.80;2.38;;;;;;;24.81;28.08;100930.56;5004265;28;20049;-83
2023/06/13 10:44:59;;;;;;;3.60;2.53;;;;;;;24.93;27.44;100938.59;5021175;28;20084;-86
2023/06/13 10:47:28;;;;;;;5.13;2.10;;;;;;;24.97;28.13;100933.78;4999443;28;20792;-84
2023/06/13 10:49:57;;;;;;;3.88;2.53;;;;;;;24.70;29.03;100936.75;4991471;28;20033;-84
2023/06/13 10:52:24;;;;;;;3.38;2.75;;;;;;;24.70;29.76;100925.94;4981017;28;20053;-82
2023/06/13 10:54:54;;;;;;;3.72;2.13;;;;;;;25.14;29.53;100921.72;4988332;28;20053;-83
2023/06/13 10:57:22;;;;;;;4.20;2.63;;;;;;;24.78;29.45;100934.34;4996759;28;20048;-83
2023/06/13 10:59:49;;;;;;;6.75;2.67;;;;;;;24.58;29.34;100940.38;4986867;28;20111;-82
2023/06/13 11:02:17;;;;;;;3.78;2.63;;;;;;;24.28;28.31;100930.81;5014722;28;20060;-86
2023/06/13 11:04:48;;;;;;;3.42;2.22;;;;;;;24.28;28.67;100932.66;5017006;28;20079;-84
2023/06/13 11:07:26;;;;;;;3.40;2.13;;;;;;;23.82;29.09;100936.03;4989300;28;20118;-84
2023/06/13 11:10:23;;;;;;;3.90;2.08;;;;;;;23.74;30.45;100931.16;5014131;28;20072;-83
2023/06/13 11:12:53;;;;;;;5.10;2.28;;;;;;;23.62;30.38;100925.75;4974240;28;20053;-85
2023/06/13 11:15:23;;;;;;;5.88;2.45;;;;;;;23.82;29.29;100927.91;4986692;28;20048;-84
2023/06/13 11:18:08;;;;;;;4.95;2.30;;;;;;;23.82;29.78;100927.91;4984914;28;20085;-85
2023/06/13 11:20:52;;;;;;;4.60;2.53;;;;;;;24.11;30.37;100912.31;5031289;28;20050;-82
2023/06/13 11:23:22;;;;;;;8.27;2.70;;;;;;;23.48;31.23;100907.84;5019929;28;20044;-83
2023/06/13 11:25:50;;;;;;;24.20;4.97;;;;;;;23.90;30.95;100921.97;5003350;28;20053;-85
2023/06/13 11:28:18;;;;;;;3.47;2.20;;;;;;;23.53;28.87;100916.44;4994362;28;20507;-83
2023/06/13 11:30:47;;;;;;;4.50;2.70;;;;;;;24.08;29.69;100902.59;4993421;28;20049;-83
2023/06/13 11:33:16;;;;;;;6.00;2.25;;;;;;;24.26;28.61;100908.50;4989804;28;20050;-85